Time;durP1;ratioP1;P1;durP2;ratioP2;P2;SDS_P1;SDS_P2;PMS_P1;PMS_P2;Temp;Humidity;BMP_temperature;BMP_pressure;BME280_temperature;BME280_humidity;BME280_pressure;Samples;Min_cycle;Max_cycle;Signal;HPM_P1;HPM_P2
2021/08/06 00:01:33;;;;;;;6.50;6.10;;;18.50;99.90;;;;;;5051299;28;20845;-66
2021/08/06 00:04:00;;;;;;;7.90;7.30;;;18.50;99.90;;;;;;5051459;28;20483;-65
2021/08/06 00:06:28;;;;;;;6.90;6.30;;;18.40;99.90;;;;;;5051318;28;20946;-65
2021/08/06 00:08:56;;;;;;;9.17;6.23;;;18.40;99.90;;;;;;5070018;28;20493;-65
2021/08/06 00:11:27;;;;;;;6.00;5.60;;;18.40;99.90;;;;;;5071136;28;20444;-66
2021/08/06 00:13:54;;;;;;;9.40;6.60;;;18.40;99.90;;;;;;5071389;28;20439;-65
2021/08/06 00:16:21;;;;;;;7.87;7.07;;;18.40;99.90;;;;;;5071408;28;20439;-65
2021/08/06 00:18:47;;;;;;;6.83;6.23;;;18.40;99.90;;;;;;5053494;28;20454;-66
2021/08/06 00:21:14;;;;;;;6.23;5.83;;;18.40;99.90;;;;;;5050982;28;20458;-65
2021/08/06 00:23:41;;;;;;;6.50;6.00;;;18.40;99.90;;;;;;5051099;28;20484;-65
2021/08/06 00:26:09;;;;;;;6.27;5.87;;;18.40;99.90;;;;;;5051027;28;20964;-66
2021/08/06 00:28:36;;;;;;;6.57;6.17;;;18.40;99.90;;;;;;5050992;28;20447;-64
2021/08/06 00:31:03;;;;;;;6.97;6.47;;;18.40;99.90;;;;;;5070850;28;20448;-65
2021/08/06 00:33:29;;;;;;;6.23;5.77;;;18.40;99.90;;;;;;5070948;28;20474;-66
2021/08/06 00:35:56;;;;;;;6.33;5.93;;;18.30;99.90;;;;;;5071261;28;20446;-66
2021/08/06 00:38:23;;;;;;;6.60;6.20;;;18.40;99.90;;;;;;5071065;28;20439;-66
2021/08/06 00:40:50;;;;;;;6.93;6.43;;;18.40;99.90;;;;;;5069816;28;20447;-65
2021/08/06 00:43:18;;;;;;;7.03;5.63;;;18.30;99.90;;;;;;5050527;28;20488;-65
2021/08/06 00:45:45;;;;;;;5.40;5.00;;;18.30;99.90;;;;;;5051218;28;20455;-65
2021/08/06 00:48:12;;;;;;;7.00;6.03;;;18.30;99.90;;;;;;5050977;28;20471;-66
2021/08/06 00:50:40;;;;;;;6.33;5.83;;;18.20;99.90;;;;;;5051105;28;20451;-65
2021/08/06 00:53:07;;;;;;;6.10;5.70;;;18.20;99.90;;;;;;5052926;28;20464;-65
2021/08/06 00:55:34;;;;;;;6.00;5.60;;;18.20;99.90;;;;;;5070867;28;20447;-65
2021/08/06 00:58:01;;;;;;;5.83;5.40;;;18.30;99.90;;;;;;5070746;28;20453;-65
2021/08/06 01:00:29;;;;;;;5.53;5.23;;;18.20;99.90;;;;;;5070662;28;20819;-66
2021/08/06 01:03:04;;;;;;;4.90;4.70;;;18.20;99.90;;;;;;5070515;28;20550;-65
2021/08/06 01:05:32;;;;;;;5.80;5.40;;;18.20;99.90;;;;;;5066822;28;20455;-65
2021/08/06 01:08:07;;;;;;;6.07;5.50;;;18.30;99.90;;;;;;5050947;28;20448;-66
2021/08/06 01:10:41;;;;;;;5.90;5.50;;;18.30;99.90;;;;;;5053553;28;20811;-65
2021/08/06 01:13:10;;;;;;;5.90;5.40;;;18.30;99.90;;;;;;5054103;28;20460;-66
2021/08/06 01:15:39;;;;;;;5.53;5.13;;;18.30;99.90;;;;;;5054532;28;20538;-65
2021/08/06 01:18:08;;;;;;;6.07;5.67;;;18.40;99.90;;;;;;5060202;28;20793;-65
2021/08/06 01:20:37;;;;;;;6.47;5.93;;;18.40;99.90;;;;;;5074324;28;20921;-66
2021/08/06 01:23:09;;;;;;;5.73;5.37;;;18.40;99.90;;;;;;5074017;28;20518;-66
2021/08/06 01:25:46;;;;;;;6.10;5.73;;;18.40;99.90;;;;;;5074223;28;20447;-66
2021/08/06 01:28:14;;;;;;;6.63;6.00;;;18.40;99.90;;;;;;5074439;28;20530;-65
2021/08/06 01:30:41;;;;;;;9.83;6.50;;;18.30;99.90;;;;;;5065636;28;20456;-66
2021/08/06 01:33:08;;;;;;;6.60;6.10;;;18.20;99.90;;;;;;5053787;28;20467;-65
2021/08/06 01:35:35;;;;;;;6.40;5.90;;;18.20;99.90;;;;;;5054168;28;20448;-65
2021/08/06 01:38:02;;;;;;;6.80;6.23;;;18.20;99.90;;;;;;5055203;28;20452;-65
2021/08/06 01:40:31;;;;;;;6.47;5.97;;;18.10;99.90;;;;;;5053776;28;20452;-65
2021/08/06 01:43:09;;;;;;;5.53;5.23;;;18.10;99.90;;;;;;5061903;28;20479;-66
2021/08/06 01:45:41;;;;;;;5.80;5.30;;;18.10;99.90;;;;;;5073869;28;20932;-66
2021/08/06 01:48:12;;;;;;;6.60;6.10;;;18.10;99.90;;;;;;5073845;28;20766;-66
2021/08/06 01:50:43;;;;;;;6.80;6.30;;;18.10;99.90;;;;;;5073974;28;20439;-65
2021/08/06 01:53:13;;;;;;;6.50;6.00;;;18.10;99.90;;;;;;5073457;28;20455;-65
2021/08/06 01:55:48;;;;;;;6.30;5.90;;;18.20;99.90;;;;;;5058710;28;20444;-65
2021/08/06 01:58:17;;;;;;;5.77;5.40;;;18.30;99.90;;;;;;5053667;28;20440;-65
2021/08/06 02:00:45;;;;;;;7.20;6.60;;;18.30;99.90;;;;;;5053671;28;20449;-65
2021/08/06 02:03:14;;;;;;;5.67;5.27;;;18.40;99.90;;;;;;5053367;28;20495;-65
2021/08/06 02:05:41;;;;;;;6.63;6.13;;;18.40;99.90;;;;;;5053556;28;20455;-65
2021/08/06 02:08:09;;;;;;;7.30;6.80;;;18.40;99.90;;;;;;5053514;28;20448;-65
2021/08/06 02:10:38;;;;;;;7.87;7.27;;;18.50;99.90;;;;;;5053386;28;20468;-66
2021/08/06 02:13:04;;;;;;;6.67;6.17;;;18.40;99.90;;;;;;5052934;28;20468;-66
2021/08/06 02:15:34;;;;;;;8.23;7.43;;;18.40;99.90;;;;;;5065233;28;20448;-66
2021/08/06 02:18:01;;;;;;;6.80;6.10;;;18.50;99.90;;;;;;5073042;28;20443;-65
2021/08/06 02:20:29;;;;;;;7.27;6.77;;;18.50;99.90;;;;;;5072839;28;20843;-66
2021/08/06 02:22:57;;;;;;;7.20;6.80;;;18.50;99.90;;;;;;5072630;28;20489;-66
2021/08/06 02:25:25;;;;;;;7.20;6.73;;;18.50;99.90;;;;;;5061860;28;20504;-66
2021/08/06 02:27:53;;;;;;;6.87;6.43;;;18.60;99.90;;;;;;5052905;28;20449;-66
2021/08/06 02:30:21;;;;;;;7.20;6.80;;;18.60;99.90;;;;;;5052984;28;20444;-66
2021/08/06 02:32:49;;;;;;;7.30;6.80;;;18.60;99.90;;;;;;5052653;28;20495;-66
2021/08/06 02:35:16;;;;;;;8.60;7.90;;;18.70;99.90;;;;;;5052825;28;20448;-66
2021/08/06 02:37:46;;;;;;;7.47;7.07;;;18.70;99.90;;;;;;5064303;28;20470;-66
2021/08/06 02:40:13;;;;;;;6.83;6.33;;;18.70;99.90;;;;;;5072740;28;20462;-66
2021/08/06 02:42:40;;;;;;;7.03;6.63;;;18.70;99.90;;;;;;5072260;28;20536;-66
2021/08/06 02:45:08;;;;;;;7.37;6.93;;;18.80;99.90;;;;;;5072758;28;20462;-66
2021/08/06 02:47:35;;;;;;;7.20;6.80;;;18.80;99.90;;;;;;5072532;28;20497;-66
2021/08/06 02:50:03;;;;;;;7.10;6.70;;;18.90;99.90;;;;;;5058466;28;20471;-66
2021/08/06 02:52:30;;;;;;;7.20;6.80;;;18.90;99.90;;;;;;5052302;28;20464;-66
2021/08/06 02:54:57;;;;;;;6.97;6.57;;;18.90;99.90;;;;;;5052566;28;20780;-66
2021/08/06 02:57:23;;;;;;;6.73;6.37;;;18.90;99.90;;;;;;5068327;28;20443;-66
2021/08/06 02:59:51;;;;;;;6.50;6.03;;;18.90;99.90;;;;;;5072404;28;20526;-66
2021/08/06 03:02:17;;;;;;;7.07;6.57;;;18.90;99.90;;;;;;5053674;28;20464;-66
2021/08/06 03:04:44;;;;;;;7.27;6.90;;;18.90;99.90;;;;;;5052350;28;20853;-66
2021/08/06 03:07:12;;;;;;;6.23;5.80;;;18.90;99.90;;;;;;5052242;28;20449;-66
2021/08/06 03:09:39;;;;;;;6.73;6.33;;;18.80;99.90;;;;;;5052151;28;20454;-66
2021/08/06 03:12:06;;;;;;;6.37;6.03;;;18.80;99.90;;;;;;5051909;28;20475;-66
2021/08/06 03:14:33;;;;;;;6.77;6.30;;;18.80;99.90;;;;;;5052239;28;20467;-66
2021/08/06 03:17:00;;;;;;;5.93;5.50;;;18.80;99.90;;;;;;5052064;28;20447;-66
2021/08/06 03:19:26;;;;;;;6.17;5.73;;;18.70;99.90;;;;;;5052078;28;20456;-66
2021/08/06 03:21:53;;;;;;;7.40;6.80;;;18.70;99.90;;;;;;5063590;28;20828;-66
2021/08/06 03:24:21;;;;;;;5.83;5.53;;;18.70;99.90;;;;;;5071636;28;20487;-66
2021/08/06 03:26:48;;;;;;;5.97;5.53;;;18.60;99.90;;;;;;5071935;28;20450;-66
2021/08/06 03:29:15;;;;;;;5.97;5.47;;;18.60;99.90;;;;;;5072026;28;20899;-66
2021/08/06 03:31:42;;;;;;;5.67;5.27;;;18.70;99.90;;;;;;5060412;28;20451;-66
2021/08/06 03:34:09;;;;;;;5.57;5.17;;;18.70;99.90;;;;;;5051858;28;20447;-66
2021/08/06 03:36:37;;;;;;;5.93;5.63;;;18.60;99.90;;;;;;5051893;28;20447;-66
2021/08/06 03:39:04;;;;;;;6.83;5.40;;;18.60;99.90;;;;;;5051787;28;20452;-66
2021/08/06 03:41:32;;;;;;;7.83;6.00;;;18.60;99.90;;;;;;5051481;28;20456;-66
2021/08/06 03:43:59;;;;;;;7.03;6.40;;;18.60;99.90;;;;;;5062143;28;20830;-66
2021/08/06 03:46:26;;;;;;;6.77;6.27;;;18.50;99.90;;;;;;5071893;28;20547;-66
2021/08/06 03:48:52;;;;;;;5.70;5.40;;;18.40;99.90;;;;;;5071675;28;20440;-66
2021/08/06 03:51:20;;;;;;;6.17;5.67;;;18.50;99.90;;;;;;5071709;28;20929;-66
2021/08/06 03:53:47;;;;;;;7.07;6.10;;;18.50;99.90;;;;;;5071403;28;20825;-66
2021/08/06 03:56:14;;;;;;;5.10;4.77;;;18.40;99.90;;;;;;5058163;28;20883;-66
2021/08/06 03:58:42;;;;;;;5.23;4.83;;;18.40;99.90;;;;;;5051487;28;20494;-66
2021/08/06 04:01:08;;;;;;;4.90;4.70;;;18.40;99.90;;;;;;5051246;28;20444;-66
2021/08/06 04:03:35;;;;;;;5.53;5.23;;;18.40;99.90;;;;;;5051188;28;20494;-66
2021/08/06 04:06:02;;;;;;;5.67;5.27;;;18.40;99.90;;;;;;5051465;28;20455;-66
2021/08/06 04:08:28;;;;;;;5.60;5.17;;;18.40;99.90;;;;;;5068624;28;20450;-66
2021/08/06 04:10:55;;;;;;;5.47;5.07;;;18.40;99.90;;;;;;5071278;28;20910;-66
2021/08/06 04:13:21;;;;;;;5.10;4.70;;;18.30;99.90;;;;;;5071433;28;20486;-66
2021/08/06 04:15:49;;;;;;;10.13;5.37;;;18.30;99.90;;;;;;5071357;28;20443;-66
2021/08/06 04:18:16;;;;;;;4.40;4.20;;;18.40;99.90;;;;;;5071293;28;20451;-66
2021/08/06 04:20:43;;;;;;;6.23;5.63;;;18.40;99.90;;;;;;5051872;28;20925;-66
2021/08/06 04:23:10;;;;;;;6.80;6.20;;;18.40;99.90;;;;;;5050727;28;20990;-66
2021/08/06 04:25:36;;;;;;;5.40;5.10;;;18.40;99.90;;;;;;5051322;28;20523;-66
2021/08/06 04:28:05;;;;;;;6.40;5.67;;;18.50;99.90;;;;;;5051152;28;20449;-66
2021/08/06 04:30:31;;;;;;;6.90;6.40;;;18.50;99.90;;;;;;5053584;28;20531;-66
2021/08/06 04:32:59;;;;;;;5.30;5.00;;;18.40;99.90;;;;;;5070876;28;20475;-66
2021/08/06 04:35:26;;;;;;;7.00;6.50;;;18.50;99.90;;;;;;5071253;28;20447;-66
2021/08/06 04:37:54;;;;;;;6.70;6.20;;;18.50;99.90;;;;;;5071157;28;20447;-66
2021/08/06 04:40:21;;;;;;;7.60;6.83;;;18.40;99.90;;;;;;5070965;28;20925;-66
2021/08/06 04:42:49;;;;;;;6.57;6.07;;;18.50;99.90;;;;;;5068623;28;20463;-66
2021/08/06 04:45:16;;;;;;;6.97;6.13;;;18.50;99.90;;;;;;5054478;28;20566;-66
2021/08/06 04:47:44;;;;;;;7.93;7.13;;;18.50;99.90;;;;;;5055042;28;20937;-66
2021/08/06 04:50:14;;;;;;;7.30;6.70;;;18.50;99.90;;;;;;5054916;28;20440;-66
2021/08/06 04:52:41;;;;;;;8.00;7.20;;;18.60;99.90;;;;;;5054499;28;20468;-66
2021/08/06 04:55:09;;;;;;;7.33;6.80;;;18.70;99.90;;;;;;5061410;28;20452;-66
2021/08/06 04:57:36;;;;;;;6.80;6.40;;;18.70;99.90;;;;;;5075178;28;20447;-66
2021/08/06 05:00:03;;;;;;;6.70;6.17;;;18.70;99.90;;;;;;5074668;28;20473;-65
2021/08/06 05:02:30;;;;;;;7.40;6.93;;;18.80;99.90;;;;;;5074198;28;20477;-66
2021/08/06 05:04:56;;;;;;;8.20;7.50;;;18.80;99.90;;;;;;5073493;28;20483;-65
2021/08/06 05:07:25;;;;;;;7.30;6.90;;;18.80;99.90;;;;;;5074350;28;20443;-66
2021/08/06 05:09:52;;;;;;;7.97;7.37;;;18.80;99.90;;;;;;5074398;28;20442;-66
2021/08/06 05:12:18;;;;;;;7.73;7.00;;;18.90;99.90;;;;;;5074295;28;20470;-66
2021/08/06 05:14:46;;;;;;;7.33;6.83;;;18.90;99.90;;;;;;5056829;28;20445;-65
2021/08/06 05:17:13;;;;;;;7.40;6.90;;;18.90;99.90;;;;;;5054420;28;20542;-66
2021/08/06 05:19:40;;;;;;;8.33;7.80;;;19.00;99.90;;;;;;5054144;28;20793;-65
2021/08/06 05:22:07;;;;;;;8.97;8.07;;;19.10;99.90;;;;;;5054005;28;20864;-65
2021/08/06 05:24:35;;;;;;;7.90;7.30;;;19.20;99.90;;;;;;5053905;28;20476;-65
2021/08/06 05:27:02;;;;;;;9.17;8.40;;;19.30;99.90;;;;;;5066657;28;20448;-65
2021/08/06 05:29:29;;;;;;;8.23;7.83;;;19.50;99.90;;;;;;5073697;28;20443;-65
2021/08/06 05:31:55;;;;;;;8.30;7.73;;;19.50;99.90;;;;;;5073658;28;20463;-65
2021/08/06 05:34:22;;;;;;;8.70;8.30;;;19.60;99.90;;;;;;5069110;28;20933;-65
2021/08/06 05:36:49;;;;;;;9.53;9.03;;;19.60;99.90;;;;;;5061006;28;20451;-65
2021/08/06 05:39:15;;;;;;;8.63;8.10;;;19.50;99.90;;;;;;5054728;28;21094;-65
2021/08/06 05:41:44;;;;;;;8.47;8.17;;;19.60;99.90;;;;;;5049072;28;20449;-65
2021/08/06 05:44:11;;;;;;;9.27;8.87;;;19.60;99.90;;;;;;5043716;28;20491;-65
2021/08/06 05:46:38;;;;;;;8.70;8.30;;;19.70;99.90;;;;;;5052209;28;20498;-65
2021/08/06 05:49:04;;;;;;;9.57;9.07;;;19.70;99.90;;;;;;5052036;28;20485;-65
2021/08/06 05:51:31;;;;;;;8.93;8.53;;;19.70;99.90;;;;;;5051447;28;21161;-65
2021/08/06 05:53:58;;;;;;;9.10;8.67;;;19.70;99.90;;;;;;5049658;28;21246;-64
2021/08/06 05:56:24;;;;;;;9.27;8.87;;;19.80;99.90;;;;;;5052411;28;20448;-64
2021/08/06 05:58:52;;;;;;;9.00;8.70;;;19.90;99.90;;;;;;5053702;28;20526;-65
2021/08/06 06:01:19;;;;;;;11.20;10.50;;;20.00;99.90;;;;;;5051519;28;20447;-65
2021/08/06 06:03:46;;;;;;;11.23;10.20;;;20.00;99.90;;;;;;5049838;28;20468;-65
2021/08/06 06:06:13;;;;;;;10.70;10.10;;;20.00;99.90;;;;;;5051116;28;20452;-65
2021/08/06 06:08:39;;;;;;;9.17;8.77;;;19.90;99.90;;;;;;5053413;28;20447;-65
2021/08/06 06:11:06;;;;;;;10.27;9.87;;;19.90;99.90;;;;;;5052774;28;20447;-66
2021/08/06 06:13:33;;;;;;;10.27;9.77;;;20.00;99.90;;;;;;5050084;28;20467;-65
2021/08/06 06:16:01;;;;;;;10.13;9.63;;;20.10;99.90;;;;;;5053281;28;20447;-66
2021/08/06 06:18:28;;;;;;;9.83;9.43;;;20.20;99.90;;;;;;5056728;28;20451;-66
2021/08/06 06:20:54;;;;;;;9.80;9.30;;;20.30;99.90;;;;;;5049733;28;20449;-66
2021/08/06 06:23:21;;;;;;;10.50;10.10;;;20.40;99.90;;;;;;5050806;28;20472;-66
2021/08/06 06:25:49;;;;;;;10.73;10.13;;;20.40;99.90;;;;;;5052000;28;20487;-66
2021/08/06 06:28:16;;;;;;;10.63;10.10;;;20.60;99.90;;;;;;5053443;28;20821;-66
2021/08/06 06:30:43;;;;;;;10.03;9.63;;;20.50;99.90;;;;;;5053015;28;20447;-66
2021/08/06 06:33:11;;;;;;;11.70;11.03;;;20.50;99.90;;;;;;5051784;28;20479;-66
2021/08/06 06:35:38;;;;;;;10.57;10.07;;;20.40;99.90;;;;;;5049598;28;20449;-68
2021/08/06 06:38:05;;;;;;;11.40;10.80;;;20.40;99.90;;;;;;5050404;28;21252;-66
2021/08/06 06:40:32;;;;;;;10.60;10.10;;;20.30;99.90;;;;;;5049384;28;21091;-66
2021/08/06 06:42:59;;;;;;;10.57;9.97;;;20.20;99.90;;;;;;5048877;28;20887;-67
2021/08/06 06:45:26;;;;;;;11.87;11.37;;;20.20;99.90;;;;;;5055804;28;21017;-66
2021/08/06 06:47:53;;;;;;;10.43;9.77;;;20.40;99.90;;;;;;5049205;28;20529;-66
2021/08/06 06:50:23;;;;;;;12.33;11.83;;;20.60;99.90;;;;;;5050935;28;20449;-67
2021/08/06 06:52:50;;;;;;;11.67;11.07;;;20.70;99.90;;;;;;5052237;28;20465;-66
2021/08/06 06:55:18;;;;;;;11.43;10.93;;;20.80;99.90;;;;;;5050858;28;21302;-66
2021/08/06 06:57:46;;;;;;;12.57;12.07;;;20.90;99.90;;;;;;5053990;28;20452;-66
2021/08/06 07:00:14;;;;;;;11.90;11.40;;;20.90;99.90;;;;;;5049829;28;20452;-67
2021/08/06 07:02:42;;;;;;;13.90;12.90;;;21.00;99.90;;;;;;5052224;28;20467;-68
2021/08/06 07:05:10;;;;;;;11.83;11.33;;;21.10;99.90;;;;;;5051584;28;20525;-66
2021/08/06 07:07:38;;;;;;;13.13;12.53;;;21.00;99.90;;;;;;5056277;28;20527;-67
2021/08/06 07:10:07;;;;;;;12.60;12.10;;;21.00;99.90;;;;;;5060362;28;20801;-68
2021/08/06 07:12:35;;;;;;;12.73;11.83;;;21.00;99.90;;;;;;5059874;28;20487;-66
2021/08/06 07:15:03;;;;;;;12.30;11.80;;;21.00;99.90;;;;;;5059039;28;20445;-67
2021/08/06 07:17:30;;;;;;;12.40;11.80;;;21.00;99.90;;;;;;5059518;28;20452;-66
2021/08/06 07:19:57;;;;;;;12.37;11.87;;;21.10;99.90;;;;;;5059194;28;20448;-67
2021/08/06 07:22:24;;;;;;;15.07;14.37;;;21.30;99.90;;;;;;5065281;28;20977;-67
2021/08/06 07:24:52;;;;;;;13.80;13.20;;;21.30;99.90;;;;;;5058134;28;20506;-66
2021/08/06 07:27:18;;;;;;;12.73;12.23;;;21.20;99.90;;;;;;5059970;28;20811;-66
2021/08/06 07:29:45;;;;;;;12.97;12.37;;;21.30;99.90;;;;;;5058737;28;20455;-67
2021/08/06 07:32:13;;;;;;;13.17;12.57;;;21.40;99.90;;;;;;5059536;28;20495;-68
2021/08/06 07:34:39;;;;;;;12.63;12.10;;;21.40;99.90;;;;;;5062995;28;20447;-67
2021/08/06 07:37:06;;;;;;;12.50;12.00;;;21.60;99.90;;;;;;5062495;28;20450;-67
2021/08/06 07:39:33;;;;;;;13.60;12.97;;;21.70;99.90;;;;;;5059711;28;20447;-67
2021/08/06 07:42:02;;;;;;;14.73;13.97;;;21.80;99.90;;;;;;5059342;28;20977;-67
2021/08/06 07:44:29;;;;;;;14.27;13.67;;;21.90;99.90;;;;;;5062476;28;20451;-67
2021/08/06 07:46:55;;;;;;;16.43;15.50;;;21.90;99.90;;;;;;5063106;28;20447;-65
2021/08/06 07:49:22;;;;;;;13.37;12.87;;;22.10;99.90;;;;;;5060091;28;20444;-66
2021/08/06 07:51:49;;;;;;;13.80;13.30;;;22.20;99.90;;;;;;5059072;28;20837;-68
2021/08/06 07:54:15;;;;;;;13.73;13.13;;;22.50;99.90;;;;;;5065952;28;20475;-68
2021/08/06 07:56:42;;;;;;;15.97;15.27;;;22.50;99.90;;;;;;5059503;28;20448;-68
2021/08/06 07:59:11;;;;;;;16.47;15.77;;;22.70;99.90;;;;;;5059820;28;20456;-68
2021/08/06 08:01:37;;;;;;;15.50;15.00;;;23.10;99.90;;;;;;5062976;28;20440;-68
2021/08/06 08:04:04;;;;;;;15.30;14.80;;;23.30;99.90;;;;;;5059460;28;20451;-68
2021/08/06 08:06:32;;;;;;;17.17;16.57;;;23.70;99.90;;;;;;5061232;28;20476;-68
2021/08/06 08:08:58;;;;;;;16.23;15.57;;;23.20;99.90;;;;;;5062825;28;20531;-68
2021/08/06 08:11:25;;;;;;;15.40;14.80;;;22.80;99.90;;;;;;5058576;28;20451;-67
2021/08/06 08:13:52;;;;;;;16.40;15.80;;;22.40;99.90;;;;;;5059256;28;20622;-68
2021/08/06 08:16:20;;;;;;;16.33;15.77;;;22.00;99.90;;;;;;5061015;28;20455;-68
2021/08/06 08:18:46;;;;;;;16.60;16.10;;;21.60;99.90;;;;;;5071189;28;20447;-68
2021/08/06 08:21:13;;;;;;;16.47;15.57;;;21.30;99.90;;;;;;5065317;28;21087;-67
2021/08/06 08:23:40;;;;;;;16.00;15.30;;;21.30;99.90;;;;;;5066832;28;20490;-67
2021/08/06 08:26:07;;;;;;;15.17;14.67;;;21.20;99.90;;;;;;5066146;28;20483;-68
2021/08/06 08:28:34;;;;;;;14.97;14.47;;;21.00;99.90;;;;;;5062326;28;20459;-69
2021/08/06 08:31:01;;;;;;;14.93;14.30;;;20.60;99.90;;;;;;5057957;28;20443;-67
2021/08/06 08:33:30;;;;;;;14.50;14.10;;;20.40;99.90;;;;;;5054781;28;20910;-68
2021/08/06 08:35:57;;;;;;;14.60;13.80;;;20.20;99.90;;;;;;5062272;28;21077;-67
2021/08/06 08:38:24;;;;;;;14.70;14.20;;;20.30;99.90;;;;;;5053923;28;20456;-67
2021/08/06 08:40:51;;;;;;;14.50;13.90;;;20.40;99.90;;;;;;5060506;28;20447;-68
2021/08/06 08:43:19;;;;;;;14.77;14.20;;;20.40;99.90;;;;;;5052531;28;20583;-67
2021/08/06 08:45:48;;;;;;;14.83;14.13;;;20.30;99.90;;;;;;5051405;28;20486;-68
2021/08/06 08:48:17;;;;;;;15.40;14.80;;;20.30;99.90;;;;;;5052515;28;20452;-68
2021/08/06 08:50:45;;;;;;;15.00;14.23;;;20.00;99.90;;;;;;5056284;28;20459;-68
2021/08/06 08:53:12;;;;;;;13.90;13.30;;;20.00;99.90;;;;;;5052221;28;20471;-67
2021/08/06 08:55:40;;;;;;;12.70;12.20;;;20.10;99.90;;;;;;5051423;28;20451;-68
2021/08/06 08:58:08;;;;;;;13.33;12.80;;;20.30;99.90;;;;;;5050869;28;20458;-68
2021/08/06 09:00:35;;;;;;;14.00;13.40;;;20.60;99.90;;;;;;5054196;28;20809;-68
2021/08/06 09:03:03;;;;;;;14.50;13.90;;;21.00;99.90;;;;;;5054346;28;20494;-67
2021/08/06 09:05:30;;;;;;;15.20;14.70;;;21.10;99.90;;;;;;5054331;28;20482;-68
2021/08/06 09:07:59;;;;;;;15.60;14.70;;;21.00;99.90;;;;;;5054657;28;20459;-67
2021/08/06 09:10:28;;;;;;;15.10;14.60;;;21.10;99.90;;;;;;5051436;28;20597;-68
2021/08/06 09:12:57;;;;;;;15.20;14.60;;;21.50;99.90;;;;;;5050740;28;20472;-68
2021/08/06 09:15:46;;;;;;;15.10;14.60;;;21.90;99.90;;;;;;5051893;28;20452;-68
2021/08/06 09:18:38;;;;;;;16.50;15.90;;;22.10;99.90;;;;;;5051979;28;21231;-68
2021/08/06 09:21:08;;;;;;;15.30;14.80;;;22.20;99.90;;;;;;5043237;28;20451;-68
2021/08/06 09:23:46;;;;;;;15.80;15.30;;;22.30;99.90;;;;;;5052616;28;20474;-68
2021/08/06 09:26:33;;;;;;;16.30;15.70;;;22.30;99.90;;;;;;5053139;28;20483;-67
2021/08/06 09:29:02;;;;;;;15.33;14.73;;;22.30;99.90;;;;;;5050375;28;20452;-68
2021/08/06 09:31:31;;;;;;;16.40;15.77;;;21.90;99.90;;;;;;5053073;28;20524;-67
2021/08/06 09:34:23;;;;;;;15.67;15.17;;;22.10;99.90;;;;;;5058001;28;20447;-68
2021/08/06 09:37:02;;;;;;;16.80;16.00;;;22.30;99.90;;;;;;5052992;28;20444;-68
2021/08/06 09:39:37;;;;;;;16.40;15.77;;;22.30;99.90;;;;;;5059174;28;20447;-68
2021/08/06 09:42:14;;;;;;;16.57;15.63;;;22.50;99.90;;;;;;5056703;28;20503;-68
2021/08/06 09:44:41;;;;;;;16.40;15.80;;;22.60;99.90;;;;;;5053632;28;20455;-67
2021/08/06 09:47:20;;;;;;;16.73;16.03;;;22.90;99.90;;;;;;5055599;28;20480;-68
2021/08/06 09:49:48;;;;;;;16.77;16.07;;;23.30;99.90;;;;;;5049760;28;20455;-70
2021/08/06 09:52:15;;;;;;;16.53;15.93;;;23.70;99.90;;;;;;5051206;28;20478;-69
2021/08/06 09:54:50;;;;;;;16.43;15.80;;;23.90;99.90;;;;;;5055671;28;20452;-69
2021/08/06 09:57:17;;;;;;;16.20;15.63;;;24.00;99.90;;;;;;5051839;28;20447;-69
2021/08/06 09:59:44;;;;;;;15.70;15.20;;;24.40;99.90;;;;;;5053820;28;20454;-69
2021/08/06 10:02:13;;;;;;;16.43;15.83;;;24.70;99.90;;;;;;5052796;28;20482;-69
2021/08/06 10:04:41;;;;;;;17.30;16.50;;;24.90;99.90;;;;;;5050689;28;20444;-69
2021/08/06 10:07:08;;;;;;;16.93;16.13;;;25.00;99.90;;;;;;5051194;28;21125;-68
2021/08/06 10:09:35;;;;;;;17.60;16.90;;;25.20;99.90;;;;;;5054869;28;20566;-68
2021/08/06 10:12:04;;;;;;;17.47;16.60;;;25.50;99.90;;;;;;5053274;28;20478;-69
2021/08/06 10:14:34;;;;;;;18.10;17.10;;;25.70;99.90;;;;;;5053061;28;20459;-70
2021/08/06 10:17:01;;;;;;;17.03;16.43;;;26.10;99.90;;;;;;5053248;28;20443;-69
2021/08/06 10:19:29;;;;;;;17.90;17.10;;;26.30;99.90;;;;;;5050306;28;20531;-68
2021/08/06 10:21:57;;;;;;;17.80;17.17;;;26.60;99.90;;;;;;5049520;28;20464;-68
2021/08/06 10:24:24;;;;;;;17.10;16.40;;;26.50;99.90;;;;;;5056446;28;20444;-68
2021/08/06 10:26:51;;;;;;;17.00;16.40;;;26.40;99.90;;;;;;5054691;28;20517;-70
2021/08/06 10:29:22;;;;;;;18.13;17.33;;;26.20;99.90;;;;;;5050799;28;20451;-68
2021/08/06 10:32:09;;;;;;;17.53;16.73;;;26.30;99.90;;;;;;5049674;28;20962;-69
2021/08/06 10:35:14;;;;;;;16.80;16.30;;;25.80;99.90;;;;;;5055687;28;20507;-68
2021/08/06 10:37:58;;;;;;;17.30;16.60;;;25.80;99.90;;;;;;5049388;28;20448;-70
2021/08/06 10:41:03;;;;;;;18.07;17.27;;;26.00;99.90;;;;;;5052531;28;20452;-69
2021/08/06 10:43:52;;;;;;;17.20;16.60;;;25.90;99.60;;;;;;5052867;28;21301;-70
2021/08/06 10:46:21;;;;;;;18.10;17.30;;;25.60;99.90;;;;;;5043289;28;20488;-68
2021/08/06 10:48:49;;;;;;;19.30;18.50;;;25.00;99.90;;;;;;5053187;28;20444;-69
2021/08/06 10:51:32;;;;;;;19.00;18.17;;;24.20;99.90;;;;;;5051209;28;20452;-69
2021/08/06 10:54:36;;;;;;;18.23;17.53;;;22.70;99.90;;;;;;5047048;28;20848;-69
2021/08/06 10:57:28;;;;;;;17.90;17.20;;;22.00;99.90;;;;;;5050294;28;20456;-68
2021/08/06 10:59:55;;;;;;;17.50;16.90;;;21.50;99.90;;;;;;5049328;28;20452;-70
2021/08/06 11:02:56;;;;;;;17.73;16.97;;;21.40;99.90;;;;;;5051769;28;20472;-69
2021/08/06 11:05:34;;;;;;;16.60;16.00;;;21.40;99.90;;;;;;5050815;28;20459;-69
2021/08/06 11:08:04;;;;;;;16.50;15.90;;;21.50;99.90;;;;;;5048459;28;20459;-68
2021/08/06 11:10:48;;;;;;;16.70;16.10;;;21.70;99.90;;;;;;5051848;28;21344;-67
2021/08/06 11:13:48;;;;;;;17.00;16.30;;;22.00;99.90;;;;;;5056012;28;20467;-67
2021/08/06 11:16:16;;;;;;;16.90;16.30;;;22.20;99.90;;;;;;5046417;28;20443;-68
2021/08/06 11:18:46;;;;;;;18.40;17.30;;;22.50;99.90;;;;;;5051815;28;20446;-68
2021/08/06 11:21:14;;;;;;;18.07;17.37;;;22.80;99.90;;;;;;5050532;28;21044;-67
2021/08/06 11:23:40;;;;;;;16.90;16.13;;;23.20;99.90;;;;;;5051900;28;20482;-68
2021/08/06 11:26:08;;;;;;;16.20;15.60;;;23.70;99.90;;;;;;5044154;28;20484;-68
2021/08/06 11:28:35;;;;;;;17.47;16.87;;;24.60;99.90;;;;;;5051878;28;20451;-69
2021/08/06 11:31:17;;;;;;;18.90;18.10;;;25.40;99.90;;;;;;5051651;28;20454;-70
2021/08/06 11:33:45;;;;;;;18.30;17.70;;;26.40;99.90;;;;;;5048471;28;20475;-69
2021/08/06 11:36:16;;;;;;;17.90;17.30;;;26.70;99.30;;;;;;5049518;28;20444;-69
2021/08/06 11:38:43;;;;;;;18.33;17.70;;;27.00;97.10;;;;;;5046689;28;20452;-69
2021/08/06 11:41:10;;;;;;;17.67;17.10;;;27.50;96.10;;;;;;5048645;28;20508;-69
2021/08/06 11:43:38;;;;;;;18.73;18.03;;;27.60;94.10;;;;;;5054831;28;21327;-68
2021/08/06 11:46:11;;;;;;;18.97;18.23;;;28.60;91.90;;;;;;5049181;28;20512;-68
2021/08/06 11:48:51;;;;;;;17.73;17.17;;;28.30;89.60;;;;;;5047938;28;20455;-67
2021/08/06 11:51:19;;;;;;;18.10;17.40;;;27.00;89.20;;;;;;5050186;28;20519;-69
2021/08/06 11:53:46;;;;;;;19.57;18.87;;;28.20;90.20;;;;;;5047130;28;20464;-67
2021/08/06 11:56:14;;;;;;;17.80;17.20;;;29.20;85.60;;;;;;5050299;28;20447;-67
2021/08/06 11:58:42;;;;;;;18.30;17.63;;;29.20;76.90;;;;;;5047878;28;20467;-69
2021/08/06 12:01:18;;;;;;;17.60;17.00;;;28.90;80.70;;;;;;5048369;28;21253;-67
2021/08/06 12:03:47;;;;;;;19.37;18.77;;;29.90;73.90;;;;;;5047736;28;20475;-68
2021/08/06 12:06:17;;;;;;;18.30;17.70;;;32.40;69.40;;;;;;5048905;28;20479;-68
2021/08/06 12:08:46;;;;;;;20.43;19.73;;;35.30;54.80;;;;;;5051426;28;20455;-67
2021/08/06 12:11:16;;;;;;;18.90;18.20;;;36.30;47.30;;;;;;5049822;28;20282;-67
2021/08/06 12:13:49;;;;;;;18.93;18.33;;;34.40;49.70;;;;;;5047558;28;20861;-67
2021/08/06 12:16:18;;;;;;;19.67;19.07;;;33.20;49.90;;;;;;5049212;28;20605;-66
2021/08/06 12:18:48;;;;;;;18.20;17.60;;;32.40;50.50;;;;;;5047605;28;20455;-67
2021/08/06 12:21:19;;;;;;;18.93;18.33;;;32.80;51.60;;;;;;5048524;28;20456;-67
2021/08/06 12:23:48;;;;;;;19.63;18.92;;;36.60;49.10;;;;;;5047134;28;20513;-67
2021/08/06 12:26:18;;;;;;;19.02;18.17;;;37.10;43.10;;;;;;5049128;28;20221;-67
2021/08/06 12:28:48;;;;;;;19.45;18.75;;;38.10;42.00;;;;;;5051347;28;20626;-67
2021/08/06 12:31:21;;;;;;;18.63;18.02;;;39.00;39.10;;;;;;5049431;28;20211;-67
2021/08/06 12:34:01;;;;;;;18.75;18.13;;;39.20;38.80;;;;;;5045775;28;20844;-67
2021/08/06 12:36:29;;;;;;;19.48;18.88;;;37.10;39.90;;;;;;5047932;28;20193;-67
2021/08/06 12:39:07;;;;;;;18.90;18.30;;;34.20;43.10;;;;;;5048033;28;20193;-67
2021/08/06 12:41:33;;;;;;;19.17;18.57;;;32.10;45.90;;;;;;5048085;28;21351;-68
2021/08/06 12:44:18;;;;;;;20.20;19.50;;;30.30;48.90;;;;;;5047522;28;20538;-67
2021/08/06 12:46:56;;;;;;;18.70;18.10;;;29.20;51.60;;;;;;5047553;28;20475;-67